Armstrong, Texas
Current Conditions -  °F | °C
As of 1:15 AM on Sunday 23 Nov 2014 (Local Time) from KBKS Reporting Station
Clear Clear  
Wind Chill: 60°   Ceiling: Unl
Heat Index: 60°   Visibility: 7mi
Dew Point: 59°   Wind: 7mph
Humidity: 95%   Direction: 150°SSE
Pressure: 29.76"   Gusts: NA
Location:  26.92°N, 97.79°W
Report Text: KBKS 230715Z AUTO 15006KT 7SM CLR 16/15 A2976 RMK AO1 T01580150
Loading
Personal Weather Stations






























Interactive Weather Map New forecast layout! Learn more

10-Day Weather Forecast

Advertisements
Track Severe Weather on mobile